Time;durP1;ratioP1;P1;durP2;ratioP2;P2;SDS_P1;SDS_P2;PMS_P1;PMS_P2;Temp;Humidity;BMP_temperature;BMP_pressure;BME280_temperature;BME280_humidity;BME280_pressure;Samples;Min_cycle;Max_cycle;Signal;HPM_P1;HPM_P2
2021/10/28 00:13:01;;;;;;;;;6.75;6.50;;;;;11.56;68.03;100757.34;4972026;28;45724;-77
2021/10/28 00:15:30;;;;;;;;;7.75;7.25;;;;;11.53;68.43;100752.19;4995950;28;45327;-78
2021/10/28 00:20:28;;;;;;;;;6.75;6.00;;;;;11.50;68.36;100741.69;4995634;28;45262;-78
2021/10/28 00:22:54;;;;;;;;;7.75;6.00;;;;;11.45;68.44;100731.31;4995530;28;45123;-78
2021/10/28 00:25:19;;;;;;;;;7.50;6.25;;;;;11.46;68.83;100737.47;4995678;28;45257;-78
2021/10/28 00:27:45;;;;;;;;;7.75;6.00;;;;;11.45;68.77;100733.13;4995783;28;45215;-78
2021/10/28 00:30:10;;;;;;;;;9.25;8.25;;;;;11.44;68.71;100726.94;4995662;28;45726;-78
2021/10/28 00:32:36;;;;;;;;;7.75;7.00;;;;;11.46;68.66;100733.03;4999659;28;45599;-78
2021/10/28 00:35:01;;;;;;;;;10.00;7.00;;;;;11.47;68.50;100721.47;5037472;28;45281;-78
2021/10/28 00:37:27;;;;;;;;;6.00;5.50;;;;;11.45;68.85;100718.00;5037742;28;45243;-78
2021/10/28 00:39:53;;;;;;;;;8.25;7.00;;;;;11.41;68.61;100713.78;5037334;28;45139;-78
2021/10/28 00:42:19;;;;;;;;;6.75;6.00;;;;;11.44;68.50;100716.28;5037475;28;45168;-78
2021/10/28 00:44:45;;;;;;;;;8.50;7.00;;;;;11.40;68.72;100710.28;5035942;28;45156;-78
2021/10/28 00:47:11;;;;;;;;;7.00;7.00;;;;;11.37;68.40;100707.78;5037471;28;45201;-78
2021/10/28 00:49:36;;;;;;;;;5.75;5.75;;;;;11.35;68.51;100712.34;5037414;28;45989;-78
2021/10/28 00:52:02;;;;;;;;;7.25;6.75;;;;;11.31;68.36;100704.63;5037235;28;45107;-78
2021/10/28 00:54:28;;;;;;;;;9.75;7.00;;;;;11.31;68.87;100708.13;5036958;28;45301;-78
2021/10/28 00:56:54;;;;;;;;;7.25;7.25;;;;;11.28;68.87;100699.47;5037348;28;45360;-78
2021/10/28 00:59:20;;;;;;;;;8.50;7.50;;;;;11.23;69.01;100699.72;5037411;28;45386;-78
2021/10/28 01:01:45;;;;;;;;;8.50;7.25;;;;;11.22;69.20;100695.34;5037112;28;45375;-78
2021/10/28 01:04:11;;;;;;;;;8.50;8.00;;;;;11.19;68.96;100691.03;5036712;28;45417;-78
2021/10/28 01:06:38;;;;;;;;;10.50;8.25;;;;;11.16;69.40;100688.56;5037077;28;45172;-78
2021/10/28 01:09:04;;;;;;;;;10.50;8.25;;;;;11.15;69.20;100696.63;5036932;28;46351;-77
2021/10/28 01:11:30;;;;;;;;;9.00;9.00;;;;;11.12;69.52;100692.34;5036993;28;45569;-77
2021/10/28 01:13:59;;;;;;;;;11.00;8.50;;;;;11.14;69.85;100684.25;5036595;28;45176;-78
2021/10/28 01:16:26;;;;;;;;;10.00;8.50;;;;;11.12;69.46;100687.00;5037128;28;45175;-78
2021/10/28 01:18:52;;;;;;;;;7.75;7.75;;;;;11.08;70.30;100673.97;5036504;28;45338;-78
2021/10/28 01:21:18;;;;;;;;;7.25;7.00;;;;;11.11;70.09;100682.63;5036920;28;45179;-78
2021/10/28 01:23:43;;;;;;;;;6.75;6.75;;;;;11.10;69.84;100672.06;5035284;28;45698;-78
2021/10/28 01:26:11;;;;;;;;;10.00;7.75;;;;;11.11;70.04;100674.63;5036922;28;45194;-78
2021/10/28 01:28:39;;;;;;;;;8.00;6.00;;;;;11.09;70.17;100667.69;5036597;28;46141;-78
2021/10/28 01:31:10;;;;;;;;;7.25;6.25;;;;;11.12;70.17;100668.38;5018431;28;45140;-78
2021/10/28 01:33:38;;;;;;;;;8.25;6.00;;;;;11.09;70.18;100651.72;5036707;28;45203;-77
2021/10/28 01:36:05;;;;;;;;;9.00;7.50;;;;;11.09;70.29;100657.91;5036603;28;45195;-78
2021/10/28 01:38:30;;;;;;;;;7.25;7.25;;;;;11.09;69.99;100657.03;5036116;28;45226;-78
2021/10/28 01:40:58;;;;;;;;;6.00;6.00;;;;;11.01;70.35;100644.16;5036582;28;45283;-78
2021/10/28 01:43:25;;;;;;;;;8.50;7.50;;;;;11.03;70.37;100650.25;5036450;28;45223;-78
2021/10/28 01:45:50;;;;;;;;;7.75;5.25;;;;;11.03;70.40;100648.47;5036372;28;45222;-78
2021/10/28 01:48:17;;;;;;;;;8.50;7.25;;;;;11.02;70.64;100644.09;5036298;28;45118;-79
2021/10/28 01:50:43;;;;;;;;;10.00;9.75;;;;;11.01;70.36;100642.34;5036339;28;45210;-77
2021/10/28 01:53:09;;;;;;;;;9.25;9.25;;;;;11.00;70.63;100640.66;5036160;28;45194;-78
2021/10/28 01:55:34;;;;;;;;;10.25;9.00;;;;;10.98;70.60;100633.72;5035990;28;45215;-77
2021/10/28 01:57:59;;;;;;;;;9.50;8.75;;;;;10.95;70.84;100637.38;5036266;28;45297;-77
2021/10/28 02:00:25;;;;;;;;;9.67;8.67;;;;;10.88;70.79;100626.22;5036498;28;45180;-76
2021/10/28 02:02:51;;;;;;;;;9.25;6.75;;;;;10.90;71.34;100631.44;5034463;28;45244;-77
2021/10/28 02:05:18;;;;;;;;;9.75;9.25;;;;;10.87;71.49;100629.84;5036164;28;45385;-76
2021/10/28 02:07:44;;;;;;;;;14.75;9.00;;;;;10.83;71.30;100628.28;5035802;28;45366;-77
2021/10/28 02:10:11;;;;;;;;;11.00;9.75;;;;;10.79;71.23;100618.78;5036250;28;45222;-79
2021/10/28 02:12:38;;;;;;;;;10.25;8.50;;;;;10.77;71.16;100620.63;5036082;28;45202;-78
2021/10/28 02:15:04;;;;;;;;;10.50;10.25;;;;;10.77;71.59;100619.78;5036093;28;45199;-78
2021/10/28 02:17:29;;;;;;;;;12.25;10.50;;;;;10.73;72.07;100610.25;5035868;28;46096;-78
2021/10/28 02:19:55;;;;;;;;;13.75;11.00;;;;;10.67;71.77;100600.81;5035924;28;45218;-78
2021/10/28 02:22:20;;;;;;;;;9.00;9.00;;;;;10.68;71.95;100602.53;5036111;28;45183;-77
2021/10/28 02:24:46;;;;;;;;;9.25;8.75;;;;;10.67;72.16;100598.16;5035670;28;45647;-78
2021/10/28 02:27:12;;;;;;;;;15.00;12.75;;;;;10.62;72.35;100594.91;5035884;28;45242;-77
2021/10/28 02:29:37;;;;;;;;;13.25;11.50;;;;;10.62;72.39;100600.22;5034276;28;45266;-77
2021/10/28 02:32:03;;;;;;;;;12.00;12.00;;;;;10.57;72.40;100594.28;5035795;28;45250;-78
2021/10/28 02:34:28;;;;;;;;;12.25;9.75;;;;;10.56;72.78;100595.22;5035789;28;45243;-77
2021/10/28 02:36:54;;;;;;;;;12.25;9.25;;;;;10.53;72.64;100586.50;5039042;28;45199;-78
2021/10/28 02:39:19;;;;;;;;;11.75;11.75;;;;;10.46;72.84;100574.47;5021100;28;45205;-78
2021/10/28 02:41:45;;;;;;;;;13.25;11.00;;;;;10.50;72.40;100585.78;5039521;28;45247;-78
2021/10/28 02:44:12;;;;;;;;;9.75;9.25;;;;;10.48;73.11;100577.91;5037794;28;45168;-78
2021/10/28 02:46:39;;;;;;;;;10.50;10.50;;;;;10.46;72.87;100590.44;5038794;28;45198;-78
2021/10/28 02:49:05;;;;;;;;;12.25;11.75;;;;;10.44;73.28;100586.97;5039137;28;45219;-77
2021/10/28 02:51:30;;;;;;;;;11.00;11.00;;;;;10.43;72.95;100581.75;5021127;28;45231;-78
2021/10/28 02:53:55;;;;;;;;;12.50;10.00;;;;;10.37;73.12;100572.31;5039145;28;45549;-77
2021/10/28 02:56:21;;;;;;;;;13.50;10.50;;;;;10.35;73.17;100569.72;5038715;28;45191;-78
2021/10/28 02:58:46;;;;;;;;;13.50;9.25;;;;;10.34;73.13;100569.81;5038897;28;45294;-78
2021/10/28 03:01:11;;;;;;;;;17.25;13.25;;;;;10.37;73.01;100567.00;5039118;28;45184;-78
2021/10/28 03:03:38;;;;;;;;;15.25;10.00;;;;;10.35;72.95;100560.91;5038636;28;45242;-78
2021/10/28 03:06:05;;;;;;;;;12.25;11.00;;;;;10.35;73.25;100564.41;5020615;28;47954;-78
2021/10/28 03:08:32;;;;;;;;;11.75;10.75;;;;;10.33;72.81;100562.75;5038703;28;45641;-77
2021/10/28 03:11:00;;;;;;;;;10.75;10.75;;;;;10.38;73.03;100563.41;5038796;28;45230;-78
2021/10/28 03:13:28;;;;;;;;;10.75;9.00;;;;;10.39;72.80;100565.13;5038625;28;45233;-77
2021/10/28 03:15:54;;;;;;;;;12.50;10.75;;;;;10.39;73.01;100557.16;5038297;28;45820;-78
2021/10/28 03:26:32;;;;;;;;;13.00;12.50;;;;;10.32;73.19;100551.28;4976420;28;45407;-78
2021/10/28 03:28:58;;;;;;;;;12.00;12.00;;;;;10.29;72.97;100540.81;4977161;28;45210;-78
2021/10/28 03:31:24;;;;;;;;;14.75;12.25;;;;;10.30;73.17;100545.19;4976955;28;45242;-78
2021/10/28 03:33:50;;;;;;;;;11.00;11.00;;;;;10.26;73.30;100534.78;4976580;28;45245;-78
2021/10/28 03:36:28;;;;;;;;;13.50;11.25;;;;;10.28;73.23;100538.25;4976170;28;46399;-78
2021/10/28 04:17:43;;;;;;;;;18.50;17.50;;;;;9.82;74.23;100496.41;4879814;29;45277;-78
2021/10/28 04:20:23;;;;;;;;;20.50;19.00;;;;;9.81;74.26;100503.50;4904548;28;46377;-78
2021/10/28 04:31:25;;;;;;;;;17.25;16.75;;;;;9.80;74.25;100506.25;4975502;28;45456;-77
2021/10/28 04:33:51;;;;;;;;;17.25;17.00;;;;;9.76;74.16;100502.91;4975474;28;45214;-78
2021/10/28 04:36:16;;;;;;;;;18.00;17.50;;;;;9.76;74.31;100505.56;4975818;28;45178;-80
2021/10/28 04:38:42;;;;;;;;;20.25;18.75;;;;;9.72;74.99;100506.66;4975585;28;45431;-80
2021/10/28 04:41:07;;;;;;;;;19.75;16.00;;;;;9.63;74.23;100496.50;4975759;28;45991;-80
2021/10/28 04:43:32;;;;;;;;;23.75;18.75;;;;;9.61;75.39;100498.41;4975360;28;45253;-80
2021/10/28 04:45:58;;;;;;;;;19.50;16.25;;;;;9.63;74.96;100501.81;4975420;28;45327;-80
2021/10/28 04:48:23;;;;;;;;;19.25;16.75;;;;;9.61;75.69;100495.75;4975692;28;45562;-80
2021/10/28 04:50:49;;;;;;;;;18.00;16.50;;;;;9.55;74.99;100504.00;4975369;28;46164;-82
2021/10/28 04:53:14;;;;;;;;;20.50;16.75;;;;;9.58;74.85;100503.88;4975620;28;45519;-81
2021/10/28 04:55:39;;;;;;;;;21.25;17.50;;;;;9.57;75.09;100505.66;4958651;28;45269;-82
2021/10/28 04:58:05;;;;;;;;;19.25;18.00;;;;;9.47;74.85;100493.78;4975512;28;45190;-82
2021/10/28 05:00:31;;;;;;;;;23.75;17.25;;;;;9.50;74.98;100499.81;5004040;28;46920;-83
2021/10/28 05:02:56;;;;;;;;;19.00;17.25;;;;;9.52;75.33;100505.03;5003498;28;45253;-78
2021/10/28 05:05:21;;;;;;;;;22.00;18.00;;;;;9.48;75.57;100506.13;5037147;28;45678;-77
2021/10/28 05:07:47;;;;;;;;;16.00;16.00;;;;;9.44;75.04;100510.72;5036945;28;45274;-77
2021/10/28 05:10:13;;;;;;;;;18.50;17.75;;;;;9.36;75.61;100499.66;5037167;28;45586;-77
2021/10/28 05:12:38;;;;;;;;;18.75;16.75;;;;;9.26;75.63;100496.63;5036958;28;45133;-77
2021/10/28 05:15:04;;;;;;;;;21.00;17.50;;;;;9.30;75.39;100505.28;5037238;28;45078;-77
2021/10/28 05:17:29;;;;;;;;;16.75;15.50;;;;;9.26;75.98;100515.19;5036718;28;45291;-77
2021/10/28 05:19:54;;;;;;;;;20.25;20.25;;;;;9.24;75.83;100509.09;5036919;28;45204;-77
2021/10/28 05:22:21;;;;;;;;;20.50;17.75;;;;;9.18;76.21;100509.41;5036872;28;45134;-78
2021/10/28 05:24:46;;;;;;;;;20.50;17.25;;;;;9.16;75.72;100511.28;5036710;28;45091;-78
2021/10/28 05:27:12;;;;;;;;;21.25;17.75;;;;;9.12;76.24;100510.56;5036605;28;45187;-78
2021/10/28 05:29:37;;;;;;;;;21.75;21.25;;;;;9.12;75.71;100520.31;5036899;28;45910;-77
2021/10/28 05:32:03;;;;;;;;;17.25;15.25;;;;;9.11;75.99;100521.28;5036822;28;46315;-78
2021/10/28 05:34:28;;;;;;;;;16.75;16.50;;;;;9.05;75.85;100510.94;5036756;28;45204;-77
2021/10/28 05:36:54;;;;;;;;;21.25;20.25;;;;;9.02;76.15;100503.16;5035100;28;45107;-78
2021/10/28 05:39:19;;;;;;;;;21.00;18.00;;;;;9.02;75.92;100511.97;5018611;28;48254;-78
2021/10/28 05:41:46;;;;;;;;;19.25;16.50;;;;;8.97;75.93;100511.34;5036555;28;45204;-77
2021/10/28 05:44:11;;;;;;;;;19.25;15.75;;;;;8.91;75.39;100495.75;5036799;28;45399;-78
2021/10/28 05:46:37;;;;;;;;;24.75;19.75;;;;;8.92;75.99;100502.75;5018378;28;45251;-77
2021/10/28 05:49:02;;;;;;;;;23.50;18.75;;;;;8.90;75.94;100500.16;5036619;28;46025;-78
2021/10/28 05:51:28;;;;;;;;;21.25;17.25;;;;;8.86;76.49;100503.91;5036345;28;45170;-77
2021/10/28 05:53:53;;;;;;;;;23.75;21.00;;;;;8.78;76.08;100493.69;5036313;28;45123;-78
2021/10/28 05:56:18;;;;;;;;;21.50;17.25;;;;;8.78;76.29;100498.97;5018300;28;45267;-78
2021/10/28 05:58:44;;;;;;;;;22.00;21.00;;;;;8.70;76.34;100490.53;5035910;28;45849;-77
2021/10/28 06:01:09;;;;;;;;;16.75;16.75;;;;;8.69;77.02;100487.97;5036311;28;45199;-77
2021/10/28 06:03:36;;;;;;;;;19.75;17.25;;;;;8.66;76.42;100499.56;5035802;28;45387;-77
2021/10/28 06:06:02;;;;;;;;;21.75;19.00;;;;;8.63;76.73;100497.91;5036002;28;45270;-79
2021/10/28 06:08:28;;;;;;;;;23.00;20.00;;;;;8.59;76.90;100491.06;5035937;28;45212;-78
2021/10/28 06:10:53;;;;;;;;;25.25;17.75;;;;;8.54;76.68;100482.47;5040684;28;45199;-78
2021/10/28 06:13:18;;;;;;;;;16.50;16.25;;;;;8.57;76.59;100492.91;5042751;28;45175;-77
2021/10/28 06:15:44;;;;;;;;;19.75;17.50;;;;;8.54;77.27;100490.41;5042633;28;45330;-77
2021/10/28 06:18:34;;;;;;;;;24.25;19.00;;;;;8.53;77.13;100491.34;5042258;28;46620;-77
2021/10/28 06:20:57;;;;;;;;;25.25;21.50;;;;;8.50;76.91;100496.78;5042460;28;45702;-78
2021/10/28 06:23:22;;;;;;;;;13.50;13.50;;;;;8.51;77.44;100498.53;5042378;28;45228;-77
2021/10/28 06:25:47;;;;;;;;;19.75;16.75;;;;;8.49;76.82;100491.56;5042675;28;45204;-77
2021/10/28 06:28:13;;;;;;;;;18.50;14.75;;;;;8.50;77.50;100488.84;5042144;28;45927;-77
2021/10/28 06:30:38;;;;;;;;;23.75;18.75;;;;;8.49;77.34;100495.06;5042615;28;45058;-77
2021/10/28 06:33:09;;;;;;;;;19.50;17.00;;;;;8.53;77.04;100504.59;5042481;28;45219;-77
2021/10/28 06:35:39;;;;;;;;;22.00;18.00;;;;;8.58;76.52;100505.25;5042551;28;45223;-77
2021/10/28 06:38:05;;;;;;;;;22.50;18.25;;;;;8.55;76.57;100499.22;5041950;28;45239;-77
2021/10/28 06:40:31;;;;;;;;;23.00;16.25;;;;;8.60;76.79;100503.38;5042558;28;45407;-78
2021/10/28 06:42:57;;;;;;;;;20.75;19.25;;;;;8.62;76.29;100501.53;5042210;28;45158;-77
2021/10/28 06:45:22;;;;;;;;;14.75;13.75;;;;;8.58;76.24;100493.75;5042614;28;45081;-77
2021/10/28 06:47:48;;;;;;;;;20.00;18.25;;;;;8.59;76.38;100498.16;5041968;28;45390;-78
2021/10/28 06:50:16;;;;;;;;;20.75;18.00;;;;;8.61;76.17;100502.44;5042121;28;45178;-77
2021/10/28 06:52:59;;;;;;;;;24.75;18.25;;;;;8.58;76.90;100515.84;5041849;28;45244;-78
2021/10/28 07:03:27;;;;;;;;;17.00;17.00;;;;;8.53;76.56;100496.66;5041580;28;45193;-78
2021/10/28 07:05:53;;;;;;;;;22.75;22.00;;;;;8.56;76.04;100507.09;5042003;28;45298;-78
2021/10/28 07:08:18;;;;;;;;;25.00;19.00;;;;;8.59;76.64;100504.31;5041706;28;46438;-77
2021/10/28 07:10:45;;;;;;;;;21.00;20.25;;;;;8.63;76.40;100505.88;5042210;28;45219;-77
2021/10/28 07:13:17;;;;;;;;;17.75;17.75;;;;;8.61;76.50;100501.59;5042001;28;45217;-78
2021/10/28 07:15:48;;;;;;;;;19.25;15.75;;;;;8.60;76.03;100499.88;5041799;28;45514;-78
2021/10/28 07:20:58;;;;;;;;;19.25;16.50;;;;;8.70;75.78;100508.25;5041738;28;45186;-77
2021/10/28 07:31:22;;;;;;;;;17.00;15.50;;;;;9.15;75.40;100498.97;5038196;28;45199;-77
2021/10/28 08:06:28;;;;;;;;;18.50;15.00;;;;;10.35;71.92;100502.44;5037559;28;45234;-78
2021/10/28 08:14:44;;;;;;;;;17.75;14.75;;;;;10.62;71.35;100496.53;5037517;28;45679;-77
2021/10/28 08:20:00;;;;;;;;;16.50;15.25;;;;;10.58;70.55;100481.69;5037790;28;45212;-78
2021/10/28 08:22:34;;;;;;;;;17.50;15.00;;;;;10.57;71.19;100486.13;5037574;28;45552;-78
2021/10/28 08:30:28;;;;;;;;;15.75;14.00;;;;;10.48;71.15;100476.88;5037454;28;45180;-78
2021/10/28 08:32:55;;;;;;;;;16.00;12.00;;;;;10.54;71.26;100488.97;5036960;28;46217;-78
2021/10/28 08:35:20;;;;;;;;;13.50;13.25;;;;;10.50;70.73;100477.66;5037328;28;45635;-77
2021/10/28 08:37:54;;;;;;;;;19.25;16.75;;;;;10.52;71.29;100475.78;5037103;28;45293;-77
2021/10/28 08:40:20;;;;;;;;;16.50;14.25;;;;;10.52;70.98;100477.59;5037838;28;45201;-77
2021/10/28 08:42:46;;;;;;;;;12.25;12.00;;;;;10.54;71.31;100478.34;5037208;28;46118;-78
2021/10/28 08:45:16;;;;;;;;;14.25;13.50;;;;;10.55;71.53;100471.25;5037449;28;45698;-78
2021/10/28 08:47:55;;;;;;;;;17.25;15.00;;;;;10.55;71.43;100464.09;5036924;28;45231;-77
2021/10/28 08:50:31;;;;;;;;;21.00;15.00;;;;;10.57;71.84;100461.38;5037537;28;45179;-78
2021/10/28 08:53:15;;;;;;;;;11.25;11.25;;;;;10.60;71.70;100462.03;5019058;28;47527;-78
2021/10/28 08:55:48;;;;;;;;;16.00;12.00;;;;;10.66;71.54;100453.72;5035852;28;45677;-77
2021/10/28 09:29:11;;;;;;;;;12.75;11.25;;;;;11.45;70.61;100408.31;5036473;28;45820;-77
2021/10/28 09:31:47;;;;;;;;;13.50;11.75;;;;;11.56;70.43;100392.53;5018685;28;45104;-78
2021/10/28 09:45:56;;;;;;;;;12.75;12.50;;;;;12.28;69.14;100381.78;5035575;28;45184;-77
2021/10/28 09:48:31;;;;;;;;;10.75;9.25;;;;;12.48;68.10;100385.81;5035519;28;46557;-77
2021/10/28 09:51:00;;;;;;;;;12.75;10.50;;;;;12.63;67.51;100377.75;5036348;28;45662;-77
2021/10/28 09:53:34;;;;;;;;;11.50;10.75;;;;;12.82;66.77;100375.56;5036183;28;45210;-77
2021/10/28 09:58:44;;;;;;;;;11.00;11.00;;;;;13.23;66.36;100381.69;5035776;28;45612;-77
2021/10/28 10:01:33;;;;;;;;;9.00;9.00;;;;;13.56;66.25;100391.84;5036242;28;45214;-77
2021/10/28 10:04:05;;;;;;;;;7.50;7.00;;;;;13.89;65.58;100384.22;5035976;28;45238;-77
2021/10/28 10:06:36;;;;;;;;;11.50;9.25;;;;;14.22;64.25;100382.72;5036286;28;45210;-77
2021/10/28 10:09:02;;;;;;;;;8.50;8.00;;;;;14.49;62.00;100385.19;5035846;28;45260;-77
2021/10/28 10:11:27;;;;;;;;;11.50;8.75;;;;;14.66;61.33;100381.28;5036023;28;45222;-77
2021/10/28 10:13:54;;;;;;;;;9.75;9.75;;;;;14.82;60.75;100379.16;5036035;28;45298;-77
2021/10/28 10:16:19;;;;;;;;;9.75;8.00;;;;;14.97;60.14;100370.94;5036410;28;45100;-77
2021/10/28 10:18:48;;;;;;;;;11.50;9.00;;;;;15.07;60.85;100368.41;5035571;28;46587;-77
2021/10/28 10:21:43;;;;;;;;;9.75;8.50;;;;;15.28;61.27;100371.25;5035993;28;45266;-77
2021/10/28 10:24:15;;;;;;;;;12.50;10.00;;;;;15.58;58.96;100369.81;5035302;28;45112;-77
2021/10/28 11:04:59;;;;;;;;;12.50;8.00;;;;;18.29;54.02;100319.09;4966717;28;45277;-78
2021/10/28 11:21:31;;;;;;;;;10.75;7.50;;;;;18.74;53.67;100296.97;5038665;28;45563;-78
2021/10/28 11:29:10;;;;;;;;;7.75;7.00;;;;;19.10;52.21;100275.63;5038583;28;45232;-78
2021/10/28 12:44:42;;;;;;;;;9.50;8.00;;;;;19.63;48.16;100163.53;5015397;28;45674;-78
2021/10/28 13:03:48;;;;;;;;;7.50;6.75;;;;;19.39;48.86;100131.78;5036607;28;45227;-78
2021/10/28 14:16:50;;;;;;;;;12.00;8.50;;;;;18.83;48.36;100041.22;5036052;28;45344;-78
2021/10/28 14:59:03;;;;;;;;;4.75;4.50;;;;;18.11;47.82;100001.47;5038838;28;45385;-78
2021/10/28 15:36:13;;;;;;;;;6.50;6.00;;;;;17.67;48.58;99960.81;5038307;28;46120;-78
2021/10/28 16:21:54;;;;;;;;;5.75;4.50;;;;;17.09;52.05;99922.31;5037185;28;45673;-79
2021/10/28 16:24:24;;;;;;;;;0.00;0.00;;;;;17.07;52.07;99930.50;5037842;28;45316;-78
2021/10/28 16:26:51;;;;;;;;;6.75;5.25;;;;;17.02;52.05;99926.53;5037757;28;45345;-78
2021/10/28 16:29:17;;;;;;;;;3.50;3.50;;;;;16.94;52.46;99921.88;5037322;28;45933;-78
2021/10/28 16:31:43;;;;;;;;;5.00;5.00;;;;;16.90;52.56;99915.94;5037467;28;45710;-79
2021/10/28 16:34:09;;;;;;;;;6.50;6.50;;;;;16.83;52.45;99913.91;5019749;28;45228;-78
2021/10/28 16:36:35;;;;;;;;;6.25;6.25;;;;;16.75;52.62;99909.28;5037633;28;45182;-78
2021/10/28 16:39:07;;;;;;;;;5.50;5.00;;;;;16.73;52.68;99909.41;5037038;28;46136;-78
2021/10/28 16:41:33;;;;;;;;;7.25;5.00;;;;;16.63;52.80;99908.56;5037440;28;45286;-78
2021/10/28 16:43:58;;;;;;;;;9.50;6.50;;;;;16.61;53.04;99912.38;5037658;28;45326;-78
2021/10/28 16:46:24;;;;;;;;;7.00;7.00;;;;;16.59;53.28;99925.94;5037741;28;45261;-78
2021/10/28 16:48:49;;;;;;;;;4.75;4.75;;;;;16.52;53.63;99916.75;5036790;28;45995;-78
2021/10/28 16:51:16;;;;;;;;;5.25;5.00;;;;;16.51;53.71;99923.91;5037200;28;45279;-78
2021/10/28 16:53:43;;;;;;;;;6.00;5.25;;;;;16.46;53.74;99912.78;5037057;28;45210;-78
2021/10/28 16:56:09;;;;;;;;;6.75;5.00;;;;;16.39;53.32;99925.06;5037421;28;45248;-78
2021/10/28 16:58:35;;;;;;;;;6.00;6.00;;;;;16.32;53.71;99918.53;5036802;28;45326;-78
2021/10/28 17:01:00;;;;;;;;;6.25;6.25;;;;;16.23;53.83;99912.13;5037222;28;45226;-78
2021/10/28 17:03:27;;;;;;;;;10.75;7.00;;;;;16.17;54.07;99913.53;5036760;28;45236;-78
2021/10/28 17:05:52;;;;;;;;;6.25;6.00;;;;;16.12;53.78;99912.25;5037402;28;45463;-78
2021/10/28 17:08:17;;;;;;;;;6.00;6.00;;;;;16.04;53.93;99908.41;5035456;28;47149;-78
2021/10/28 17:10:43;;;;;;;;;5.00;3.50;;;;;16.02;54.02;99910.41;5036926;28;45225;-78
2021/10/28 17:13:09;;;;;;;;;6.25;6.00;;;;;15.97;54.36;99909.09;5036935;28;45345;-78
2021/10/28 17:15:34;;;;;;;;;10.00;6.25;;;;;15.95;54.30;99903.88;5037221;28;45262;-78
2021/10/28 17:17:59;;;;;;;;;7.00;6.00;;;;;15.86;54.20;99897.50;5036703;28;46426;-78
2021/10/28 17:20:27;;;;;;;;;9.50;7.00;;;;;15.81;54.73;99901.56;5036607;28;45231;-83
2021/10/28 17:22:55;;;;;;;;;7.75;5.00;;;;;15.78;54.33;99902.66;5035198;28;45188;-83
2021/10/28 17:25:21;;;;;;;;;9.00;9.00;;;;;15.80;54.54;99918.63;5036885;28;45261;-78
2021/10/28 17:27:48;;;;;;;;;7.75;5.75;;;;;15.76;54.93;99910.00;5036579;28;45168;-78
2021/10/28 17:30:15;;;;;;;;;5.00;5.00;;;;;15.76;54.38;99909.13;5036759;28;45286;-78
2021/10/28 17:32:42;;;;;;;;;6.25;5.00;;;;;15.71;55.02;99907.69;5018471;28;45290;-79
2021/10/28 17:35:08;;;;;;;;;8.00;7.50;;;;;15.64;54.96;99906.53;5036702;28;45215;-79
2021/10/28 17:37:34;;;;;;;;;8.75;6.75;;;;;15.57;55.14;99899.16;5036434;28;45399;-78
2021/10/28 17:39:59;;;;;;;;;6.75;6.75;;;;;15.56;55.47;99903.66;5036735;28;45272;-78
2021/10/28 17:42:24;;;;;;;;;6.50;5.25;;;;;15.53;55.46;99901.25;5034986;28;45177;-78
2021/10/28 17:44:57;;;;;;;;;10.75;7.25;;;;;15.53;55.74;99894.09;5036631;28;45229;-78
2021/10/28 17:47:24;;;;;;;;;8.25;5.25;;;;;15.52;55.46;99902.25;5036287;28;46233;-78
2021/10/28 17:49:49;;;;;;;;;7.25;6.75;;;;;15.48;55.67;99911.53;5036251;28;45124;-79
2021/10/28 17:52:15;;;;;;;;;5.75;5.75;;;;;15.42;55.87;99904.00;5018330;28;45191;-79
2021/10/28 17:54:41;;;;;;;;;9.75;7.75;;;;;15.39;55.81;99905.16;5036418;28;45096;-79
2021/10/28 17:57:06;;;;;;;;;7.25;7.25;;;;;15.35;56.16;99909.91;5036344;28;45505;-79
2021/10/28 17:59:32;;;;;;;;;10.25;8.50;;;;;15.33;56.26;99911.88;5036160;28;45246;-79
2021/10/28 18:01:57;;;;;;;;;7.25;7.25;;;;;15.28;56.30;99899.84;5036360;28;45182;-79
2021/10/28 18:04:23;;;;;;;;;9.75;8.00;;;;;15.24;55.98;99899.25;5036036;28;45136;-79
2021/10/28 18:06:49;;;;;;;;;12.50;9.50;;;;;15.25;56.20;99909.00;5035360;28;46196;-79
2021/10/28 18:09:15;;;;;;;;;21.75;17.25;;;;;15.21;56.10;99899.53;5035744;28;45778;-79
2021/10/28 18:11:41;;;;;;;;;16.75;14.75;;;;;15.18;56.49;99895.28;5036202;28;45274;-79
2021/10/28 18:14:16;;;;;;;;;13.50;12.75;;;;;15.15;56.29;99898.22;5034809;28;45338;-79
2021/10/28 18:16:42;;;;;;;;;10.00;10.00;;;;;15.07;56.45;99892.66;5035822;28;46163;-79
2021/10/28 18:19:08;;;;;;;;;11.50;10.25;;;;;15.07;56.42;99902.53;5035790;28;45280;-78
2021/10/28 18:21:37;;;;;;;;;24.75;21.25;;;;;15.04;56.69;99892.09;5036173;28;45150;-79
2021/10/28 18:24:03;;;;;;;;;15.50;11.50;;;;;14.97;56.42;99887.22;5035892;28;45163;-79
2021/10/28 18:26:28;;;;;;;;;11.00;8.25;;;;;14.97;56.92;99891.75;5036248;28;45251;-79
2021/10/28 18:28:56;;;;;;;;;9.25;9.25;;;;;14.92;56.66;99889.47;5035477;28;45195;-79
2021/10/28 18:31:21;;;;;;;;;11.75;10.00;;;;;14.89;56.97;99887.03;5036042;28;45342;-78
2021/10/28 18:33:48;;;;;;;;;11.75;10.00;;;;;14.87;57.25;99883.63;5035425;28;45214;-79
2021/10/28 18:36:14;;;;;;;;;10.75;10.75;;;;;14.86;57.02;99883.78;5035799;28;46025;-79
2021/10/28 18:38:45;;;;;;;;;13.75;11.75;;;;;14.77;57.22;99872.00;5035548;28;45227;-79
2021/10/28 18:41:11;;;;;;;;;12.75;11.00;;;;;14.77;57.44;99880.88;5035817;28;45337;-79
2021/10/28 18:43:36;;;;;;;;;20.25;16.75;;;;;14.73;57.31;99878.59;5035384;28;45250;-79
2021/10/28 18:46:02;;;;;;;;;14.75;13.50;;;;;14.72;57.68;99885.78;5035356;28;45856;-79
2021/10/28 18:48:28;;;;;;;;;15.75;11.25;;;;;14.69;57.56;99879.81;5034022;28;45155;-79
2021/10/28 18:50:54;;;;;;;;;10.50;9.00;;;;;14.70;57.50;99881.53;5035384;28;45270;-79
2021/10/28 18:53:20;;;;;;;;;12.25;11.50;;;;;14.65;57.80;99876.53;5035630;28;45370;-79
2021/10/28 18:55:45;;;;;;;;;10.00;8.25;;;;;14.58;57.82;99861.94;5035504;28;45132;-79
2021/10/28 18:58:11;;;;;;;;;11.50;9.50;;;;;14.63;57.81;99873.16;5035594;28;45234;-79
2021/10/28 19:00:37;;;;;;;;;11.50;10.75;;;;;14.61;57.97;99864.41;5035664;28;45177;-79
2021/10/28 19:03:02;;;;;;;;;10.75;9.00;;;;;14.55;58.00;99856.84;5035079;28;45325;-79
2021/10/28 19:05:28;;;;;;;;;10.75;9.00;;;;;14.52;58.02;99855.28;5035313;28;46668;-79
2021/10/28 19:07:54;;;;;;;;;10.50;9.75;;;;;14.54;58.24;99856.03;5035446;28;45136;-80
2021/10/28 19:10:19;;;;;;;;;13.00;11.25;;;;;14.52;58.27;99849.94;5035627;28;45208;-79
2021/10/28 19:12:45;;;;;;;;;11.50;8.75;;;;;14.45;58.64;99844.25;5035218;28;45342;-79
2021/10/28 19:15:11;;;;;;;;;11.00;10.25;;;;;14.46;58.56;99845.09;5035316;28;45734;-79
2021/10/28 19:17:38;;;;;;;;;11.50;11.50;;;;;14.42;58.52;99843.66;5037013;28;45658;-78
2021/10/28 19:20:05;;;;;;;;;13.50;10.25;;;;;14.38;58.53;99837.72;5039228;28;45198;-79
2021/10/28 19:22:32;;;;;;;;;15.25;13.25;;;;;14.36;58.98;99837.00;5038530;28;45376;-79
2021/10/28 19:24:58;;;;;;;;;16.00;12.25;;;;;14.38;58.78;99840.41;5038519;28;45365;-79
2021/10/28 19:27:24;;;;;;;;;10.00;10.00;;;;;14.35;58.93;99835.31;5038744;28;45438;-79
2021/10/28 19:29:55;;;;;;;;;12.50;11.00;;;;;14.36;59.13;99838.81;5038777;28;45262;-79
2021/10/28 19:32:23;;;;;;;;;11.25;10.50;;;;;14.30;59.33;99833.00;5038401;28;45379;-79
2021/10/28 19:34:48;;;;;;;;;13.00;12.75;;;;;14.29;59.24;99839.34;5020356;28;47445;-79
2021/10/28 19:37:19;;;;;;;;;13.50;12.00;;;;;14.30;59.29;99840.19;5038341;28;45267;-79
2021/10/28 19:42:30;;;;;;;;;13.25;11.00;;;;;14.27;59.66;99825.22;5038406;28;45460;-79
2021/10/28 19:45:14;;;;;;;;;12.25;9.50;;;;;14.29;59.49;99825.09;5038265;28;46000;-79
2021/10/28 19:47:39;;;;;;;;;11.50;11.50;;;;;14.25;59.63;99821.84;5038422;28;45167;-79
2021/10/28 19:50:06;;;;;;;;;14.75;12.75;;;;;14.24;59.84;99814.78;5038543;28;45504;-79
2021/10/28 19:52:31;;;;;;;;;14.00;12.25;;;;;14.22;59.94;99810.53;5038266;28;45220;-79
2021/10/28 19:55:01;;;;;;;;;13.50;10.75;;;;;14.24;59.89;99812.13;5038303;28;46481;-79
2021/10/28 19:57:30;;;;;;;;;14.75;11.25;;;;;14.21;59.81;99808.84;5037815;28;45579;-79